Time;durP1;ratioP1;P1;durP2;ratioP2;P2;SDS_P1;SDS_P2;PMS_P1;PMS_P2;Temp;Humidity;BMP_temperature;BMP_pressure;BME280_temperature;BME280_humidity;BME280_pressure;Samples;Min_cycle;Max_cycle;Signal;HPM_P1;HPM_P2
2022/09/08 00:02:13;;;;;;;3.17;2.10;;;;;;;;;;5157370;27;20377;-58
2022/09/08 00:04:39;;;;;;;3.63;2.50;;;;;;;;;;5157603;27;20034;-58
2022/09/08 00:07:06;;;;;;;2.78;2.13;;;;;;;;;;5157152;27;20034;-58
2022/09/08 00:09:32;;;;;;;5.40;3.10;;;;;;;;;;5157219;27;20048;-58
2022/09/08 00:12:01;;;;;;;4.07;2.47;;;;;;;;;;5157208;27;20029;-58
2022/09/08 00:14:27;;;;;;;5.20;2.63;;;;;;;;;;5157151;27;20022;-58
2022/09/08 00:16:53;;;;;;;3.28;2.38;;;;;;;;;;5157047;27;20034;-58
2022/09/08 00:19:19;;;;;;;6.88;3.22;;;;;;;;;;5157062;27;20026;-58
2022/09/08 00:21:45;;;;;;;5.43;2.85;;;;;;;;;;5157584;27;20026;-58
2022/09/08 00:24:11;;;;;;;4.15;3.03;;;;;;;;;;5157555;27;20052;-58
2022/09/08 00:26:37;;;;;;;3.80;2.60;;;;;;;;;;5156783;27;20447;-58
2022/09/08 00:29:03;;;;;;;5.50;3.38;;;;;;;;;;5156884;27;20027;-58
2022/09/08 00:31:29;;;;;;;5.95;4.00;;;;;;;;;;5156841;27;20022;-58
2022/09/08 00:33:54;;;;;;;6.45;3.47;;;;;;;;;;5157107;27;20041;-58
2022/09/08 00:36:20;;;;;;;4.88;3.13;;;;;;;;;;5155905;27;20030;-58
2022/09/08 00:38:50;;;;;;;5.22;3.40;;;;;;;;;;5156625;27;20015;-58
2022/09/08 00:41:17;;;;;;;4.50;3.38;;;;;;;;;;5156524;27;20025;-58
2022/09/08 00:43:44;;;;;;;8.25;4.05;;;;;;;;;;5157188;27;20015;-58
2022/09/08 00:46:16;;;;;;;7.10;3.13;;;;;;;;;;5156442;27;20041;-58
2022/09/08 00:48:53;;;;;;;4.20;3.28;;;;;;;;;;5156435;27;20019;-58
2022/09/08 00:51:19;;;;;;;3.35;2.95;;;;;;;;;;5156633;27;20370;-58
2022/09/08 00:53:46;;;;;;;4.50;3.45;;;;;;;;;;5156401;27;20022;-58
2022/09/08 00:56:12;;;;;;;10.20;3.75;;;;;;;;;;5156626;27;20059;-58
2022/09/08 00:58:39;;;;;;;4.90;3.50;;;;;;;;;;5156199;27;20027;-58
2022/09/08 01:01:06;;;;;;;7.38;3.35;;;;;;;;;;5156195;27;20026;-58
2022/09/08 01:03:32;;;;;;;4.28;3.17;;;;;;;;;;5156872;27;20067;-58
2022/09/08 01:06:17;;;;;;;4.75;3.80;;;;;;;;;;5156438;27;20110;-58
2022/09/08 01:14:43;;;;;;;3.70;3.03;;;;;;;;;;5156156;27;20164;-58
2022/09/08 01:17:18;;;;;;;5.78;3.45;;;;;;;;;;5156285;27;20531;-58
2022/09/08 01:19:46;;;;;;;7.00;3.47;;;;;;;;;;5156494;27;20030;-58
2022/09/08 01:22:27;;;;;;;4.18;3.00;;;;;;;;;;5156456;27;20357;-59
2022/09/08 01:24:59;;;;;;;4.05;3.65;;;;;;;;;;5155935;27;20582;-58
2022/09/08 01:27:30;;;;;;;4.63;3.90;;;;;;;;;;5156139;27;20030;-58
2022/09/08 01:30:04;;;;;;;6.03;3.33;;;;;;;;;;5155853;27;20027;-58
2022/09/08 01:32:33;;;;;;;5.30;3.17;;;;;;;;;;5155494;27;20050;-58
2022/09/08 01:34:59;;;;;;;3.85;3.03;;;;;;;;;;5156178;27;20046;-58
2022/09/08 01:37:25;;;;;;;10.35;3.28;;;;;;;;;;5156270;27;20058;-58
2022/09/08 01:39:51;;;;;;;4.68;3.13;;;;;;;;;;5155970;27;20034;-58
2022/09/08 01:42:17;;;;;;;3.92;2.97;;;;;;;;;;5155680;27;20023;-58
2022/09/08 01:44:43;;;;;;;3.20;2.90;;;;;;;;;;5156507;27;20023;-58
2022/09/08 01:47:09;;;;;;;6.55;3.33;;;;;;;;;;5155197;27;20079;-58
2022/09/08 01:49:36;;;;;;;3.92;3.50;;;;;;;;;;5155536;27;20084;-58
2022/09/08 01:52:02;;;;;;;5.15;4.10;;;;;;;;;;5155557;27;20046;-58
2022/09/08 01:54:28;;;;;;;6.40;3.05;;;;;;;;;;5155641;27;20027;-58
2022/09/08 01:56:54;;;;;;;5.43;3.28;;;;;;;;;;5156042;27;20025;-58
2022/09/08 01:59:21;;;;;;;4.45;2.83;;;;;;;;;;5155989;27;20027;-58
2022/09/08 02:01:47;;;;;;;6.50;3.85;;;;;;;;;;5155412;27;20372;-58
2022/09/08 02:04:13;;;;;;;4.88;2.88;;;;;;;;;;5155538;27;20022;-58
2022/09/08 02:06:39;;;;;;;2.67;2.08;;;;;;;;;;5155402;27;20039;-58
2022/09/08 02:09:05;;;;;;;5.32;2.90;;;;;;;;;;5155697;27;20341;-58
2022/09/08 02:11:31;;;;;;;5.07;2.53;;;;;;;;;;5155372;27;20210;-58
2022/09/08 02:13:57;;;;;;;3.85;2.67;;;;;;;;;;5156001;27;20050;-58
2022/09/08 02:16:23;;;;;;;3.35;2.20;;;;;;;;;;5155371;27;20026;-58
2022/09/08 02:18:49;;;;;;;4.25;2.17;;;;;;;;;;5155257;27;20026;-58
2022/09/08 02:21:17;;;;;;;8.98;2.72;;;;;;;;;;5155266;27;20069;-58
2022/09/08 02:23:44;;;;;;;4.53;2.85;;;;;;;;;;5155672;27;20023;-58
2022/09/08 02:26:16;;;;;;;3.50;2.13;;;;;;;;;;5155735;27;20045;-58
2022/09/08 02:28:41;;;;;;;3.83;2.67;;;;;;;;;;5155262;27;20027;-58
2022/09/08 02:31:08;;;;;;;3.55;1.98;;;;;;;;;;5155253;27;20025;-58
2022/09/08 02:33:33;;;;;;;2.30;1.80;;;;;;;;;;5155791;27;20045;-58
2022/09/08 02:35:59;;;;;;;3.88;2.55;;;;;;;;;;5155491;27;20102;-58
2022/09/08 02:38:25;;;;;;;4.38;2.47;;;;;;;;;;5155201;27;20083;-58
2022/09/08 02:40:51;;;;;;;2.70;1.80;;;;;;;;;;5155423;27;20031;-58
2022/09/08 02:43:18;;;;;;;6.32;2.67;;;;;;;;;;5155480;27;20071;-58
2022/09/08 02:45:46;;;;;;;3.70;2.30;;;;;;;;;;5155538;27;20026;-58
2022/09/08 02:48:12;;;;;;;5.40;1.80;;;;;;;;;;5154937;27;20026;-58
2022/09/08 02:50:38;;;;;;;11.93;2.00;;;;;;;;;;5155364;27;20179;-58
2022/09/08 02:53:04;;;;;;;2.53;1.58;;;;;;;;;;5155007;27;20101;-58
2022/09/08 02:55:30;;;;;;;2.65;1.20;;;;;;;;;;5155021;27;20058;-58
2022/09/08 02:57:56;;;;;;;2.55;1.50;;;;;;;;;;5154977;27;20015;-58
2022/09/08 03:00:22;;;;;;;2.17;1.42;;;;;;;;;;5158678;27;20029;-58
2022/09/08 03:02:48;;;;;;;5.97;1.30;;;;;;;;;;5158680;27;20076;-58
2022/09/08 03:05:14;;;;;;;2.15;1.38;;;;;;;;;;5158677;27;20019;-58
2022/09/08 03:07:41;;;;;;;2.80;1.17;;;;;;;;;;5158777;27;20463;-58
2022/09/08 03:10:07;;;;;;;2.47;1.17;;;;;;;;;;5159282;27;20030;-58
2022/09/08 03:12:34;;;;;;;3.17;1.52;;;;;;;;;;5158692;27;20047;-58
2022/09/08 03:15:00;;;;;;;2.25;1.20;;;;;;;;;;5158727;27;20357;-58
2022/09/08 03:17:26;;;;;;;2.80;1.48;;;;;;;;;;5158947;27;20345;-58
2022/09/08 03:19:54;;;;;;;2.53;1.42;;;;;;;;;;5158336;27;20022;-58
2022/09/08 03:22:20;;;;;;;2.08;1.05;;;;;;;;;;5159013;27;20018;-58
2022/09/08 03:24:46;;;;;;;3.15;1.98;;;;;;;;;;5158331;27;20368;-58
2022/09/08 03:27:12;;;;;;;3.88;1.17;;;;;;;;;;5158657;27;20031;-58
2022/09/08 03:29:38;;;;;;;2.67;1.27;;;;;;;;;;5158164;27;20103;-58
2022/09/08 03:32:05;;;;;;;2.45;1.25;;;;;;;;;;5158142;27;20026;-58
2022/09/08 03:34:31;;;;;;;2.13;0.95;;;;;;;;;;5158425;27;20456;-58
2022/09/08 03:36:57;;;;;;;1.88;1.00;;;;;;;;;;5158326;27;20102;-58
2022/09/08 03:39:23;;;;;;;1.48;0.80;;;;;;;;;;5157958;27;20030;-58
2022/09/08 03:41:49;;;;;;;2.35;1.27;;;;;;;;;;5158723;27;20039;-58
2022/09/08 03:44:15;;;;;;;2.80;1.20;;;;;;;;;;5158259;27;20054;-58
2022/09/08 03:46:41;;;;;;;2.10;1.10;;;;;;;;;;5157721;27;20056;-58
2022/09/08 03:49:07;;;;;;;1.60;0.80;;;;;;;;;;5157763;27;20071;-58
2022/09/08 03:51:33;;;;;;;1.25;0.70;;;;;;;;;;5157696;27;20058;-58
2022/09/08 03:56:45;;;;;;;2.00;1.00;;;;;;;;;;5157411;27;20118;-58
2022/09/08 03:59:12;;;;;;;1.17;0.60;;;;;;;;;;5157901;27;20452;-58
2022/09/08 04:01:39;;;;;;;2.58;0.80;;;;;;;;;;5157493;27;20023;-58
2022/09/08 04:04:05;;;;;;;0.90;0.57;;;;;;;;;;5157539;27;20460;-58
2022/09/08 04:06:31;;;;;;;1.00;0.55;;;;;;;;;;5157888;27;20034;-58
2022/09/08 04:08:57;;;;;;;2.08;0.93;;;;;;;;;;5157183;27;20050;-58
2022/09/08 04:11:23;;;;;;;0.90;0.45;;;;;;;;;;5157580;27;20011;-58
2022/09/08 04:13:50;;;;;;;1.58;0.90;;;;;;;;;;5157617;27;20350;-58
2022/09/08 04:16:16;;;;;;;1.83;0.88;;;;;;;;;;5157243;27;20354;-58
2022/09/08 04:18:43;;;;;;;1.65;0.70;;;;;;;;;;5157764;27;20386;-58
2022/09/08 04:21:10;;;;;;;1.50;0.55;;;;;;;;;;5157094;27;20019;-58
2022/09/08 04:23:36;;;;;;;1.02;0.50;;;;;;;;;;5157113;27;20027;-58
2022/09/08 04:26:03;;;;;;;1.63;0.88;;;;;;;;;;5157264;27;20371;-58
2022/09/08 04:28:30;;;;;;;1.42;0.73;;;;;;;;;;5157814;27;20261;-58
2022/09/08 04:30:56;;;;;;;2.47;0.90;;;;;;;;;;5156971;27;20026;-58
2022/09/08 04:33:22;;;;;;;2.22;1.10;;;;;;;;;;5157263;27;20023;-58
2022/09/08 04:35:47;;;;;;;1.33;0.68;;;;;;;;;;5156885;27;20088;-58
2022/09/08 04:38:13;;;;;;;2.22;0.80;;;;;;;;;;5157040;27;20026;-58
2022/09/08 04:40:40;;;;;;;1.23;0.63;;;;;;;;;;5156719;27;20553;-58
2022/09/08 04:43:06;;;;;;;3.33;0.77;;;;;;;;;;5157022;27;20101;-58
2022/09/08 04:45:32;;;;;;;1.23;0.70;;;;;;;;;;5156622;27;20019;-58
2022/09/08 04:47:58;;;;;;;1.30;0.70;;;;;;;;;;5156397;27;20041;-58
2022/09/08 04:50:24;;;;;;;2.08;0.80;;;;;;;;;;5156231;27;20022;-58
2022/09/08 04:52:50;;;;;;;0.93;0.45;;;;;;;;;;5156577;27;20030;-58
2022/09/08 04:55:16;;;;;;;1.00;0.50;;;;;;;;;;5156476;27;20019;-58
2022/09/08 04:57:42;;;;;;;1.30;0.70;;;;;;;;;;5156993;27;20054;-58
2022/09/08 05:00:08;;;;;;;1.50;0.70;;;;;;;;;;5156887;27;20046;-58
2022/09/08 05:02:34;;;;;;;1.48;0.70;;;;;;;;;;5156274;27;20105;-58
2022/09/08 05:05:00;;;;;;;1.90;0.63;;;;;;;;;;5156897;27;20065;-58
2022/09/08 05:07:26;;;;;;;2.88;1.08;;;;;;;;;;5156942;27;20033;-58
2022/09/08 05:09:52;;;;;;;1.40;0.93;;;;;;;;;;5156726;27;20019;-58
2022/09/08 05:12:18;;;;;;;1.67;0.85;;;;;;;;;;5156448;27;20022;-58
2022/09/08 05:14:44;;;;;;;1.75;0.70;;;;;;;;;;5156468;27;20025;-58
2022/09/08 05:17:10;;;;;;;1.15;0.60;;;;;;;;;;5156566;27;20035;-58
2022/09/08 05:19:36;;;;;;;0.88;0.50;;;;;;;;;;5156349;27;20030;-58
2022/09/08 05:22:02;;;;;;;1.33;0.63;;;;;;;;;;5155475;27;20033;-58
2022/09/08 05:24:28;;;;;;;2.28;1.00;;;;;;;;;;5156550;27;20018;-58
2022/09/08 05:26:54;;;;;;;1.48;0.88;;;;;;;;;;5155564;27;20050;-58
2022/09/08 05:29:22;;;;;;;1.52;0.60;;;;;;;;;;5155908;27;20452;-58
2022/09/08 05:31:48;;;;;;;1.58;0.77;;;;;;;;;;5155776;27;20143;-58
2022/09/08 05:34:14;;;;;;;1.08;0.47;;;;;;;;;;5155694;27;20430;-58
2022/09/08 05:36:40;;;;;;;0.93;0.60;;;;;;;;;;5156055;27;20053;-58
2022/09/08 05:39:06;;;;;;;1.77;0.63;;;;;;;;;;5156244;27;20042;-58
2022/09/08 05:41:33;;;;;;;1.50;0.82;;;;;;;;;;5155658;27;20018;-58
2022/09/08 05:43:59;;;;;;;2.97;1.17;;;;;;;;;;5156311;27;20022;-58
2022/09/08 05:46:26;;;;;;;1.45;0.50;;;;;;;;;;5155912;27;20085;-58
2022/09/08 05:48:53;;;;;;;1.50;0.63;;;;;;;;;;5155553;27;20026;-58
2022/09/08 05:51:20;;;;;;;1.40;0.82;;;;;;;;;;5155297;27;20472;-58
2022/09/08 05:53:46;;;;;;;1.20;0.60;;;;;;;;;;5155582;27;20354;-58
2022/09/08 05:56:13;;;;;;;2.05;1.30;;;;;;;;;;5155451;27;20478;-58
2022/09/08 05:58:39;;;;;;;3.92;0.75;;;;;;;;;;5155971;27;20051;-58
2022/09/08 06:01:07;;;;;;;1.70;0.80;;;;;;;;;;5155244;27;20055;-58
2022/09/08 06:03:33;;;;;;;1.67;0.88;;;;;;;;;;5155736;27;20050;-58
2022/09/08 06:06:07;;;;;;;1.17;0.50;;;;;;;;;;5155391;27;20101;-58
2022/09/08 06:08:33;;;;;;;1.55;0.93;;;;;;;;;;5155689;27;20050;-58
2022/09/08 06:10:59;;;;;;;1.50;0.90;;;;;;;;;;5155410;27;20030;-58
2022/09/08 06:13:25;;;;;;;2.25;1.27;;;;;;;;;;5155752;27;20106;-58
2022/09/08 06:15:51;;;;;;;1.58;0.88;;;;;;;;;;5155400;27;20022;-58
2022/09/08 06:18:17;;;;;;;2.00;0.93;;;;;;;;;;5155631;27;20026;-58
2022/09/08 06:20:44;;;;;;;1.80;0.93;;;;;;;;;;5155334;27;20472;-58
2022/09/08 06:23:10;;;;;;;2.45;0.80;;;;;;;;;;5155859;27;20023;-58
2022/09/08 06:25:43;;;;;;;1.30;0.55;;;;;;;;;;5155220;27;20030;-58
2022/09/08 06:28:26;;;;;;;3.47;0.60;;;;;;;;;;5155854;27;20130;-58
2022/09/08 06:30:54;;;;;;;0.98;0.55;;;;;;;;;;5155269;27;20158;-58
2022/09/08 06:33:47;;;;;;;2.60;0.95;;;;;;;;;;5157651;27;20203;-58
2022/09/08 06:36:24;;;;;;;1.52;0.90;;;;;;;;;;5155954;27;20050;-58
2022/09/08 06:38:53;;;;;;;1.77;0.70;;;;;;;;;;5159475;27;20030;-58
2022/09/08 06:41:27;;;;;;;0.98;0.45;;;;;;;;;;5159074;27;20470;-59
2022/09/08 06:43:55;;;;;;;1.25;0.70;;;;;;;;;;5159482;27;20030;-59
2022/09/08 06:46:31;;;;;;;1.17;0.63;;;;;;;;;;5159115;27;20035;-59
2022/09/08 06:48:58;;;;;;;2.20;0.88;;;;;;;;;;5159232;27;20060;-58
2022/09/08 06:51:33;;;;;;;2.40;0.88;;;;;;;;;;5158360;27;20552;-58
2022/09/08 06:53:59;;;;;;;2.75;1.00;;;;;;;;;;5159344;27;20027;-58
2022/09/08 06:56:35;;;;;;;1.02;0.70;;;;;;;;;;5158940;27;20023;-58
2022/09/08 06:59:02;;;;;;;0.55;0.30;;;;;;;;;;5158922;27;20046;-58
2022/09/08 07:01:37;;;;;;;1.75;0.82;;;;;;;;;;5158848;27;20054;-58
2022/09/08 07:04:18;;;;;;;1.33;0.50;;;;;;;;;;5159170;27;20079;-58
2022/09/08 07:06:56;;;;;;;1.38;0.68;;;;;;;;;;5158435;27;20035;-58
2022/09/08 07:09:41;;;;;;;0.85;0.35;;;;;;;;;;5158464;27;20026;-58
2022/09/08 07:12:23;;;;;;;2.00;0.73;;;;;;;;;;5158782;27;20019;-58
2022/09/08 07:14:53;;;;;;;1.48;0.75;;;;;;;;;;5158701;27;20448;-58
2022/09/08 07:17:24;;;;;;;1.00;0.50;;;;;;;;;;5158355;27;20035;-58
2022/09/08 07:19:51;;;;;;;0.73;0.40;;;;;;;;;;5158544;27;20091;-58
2022/09/08 07:22:25;;;;;;;1.65;0.82;;;;;;;;;;5158411;27;20027;-58
2022/09/08 07:24:52;;;;;;;1.55;0.63;;;;;;;;;;5158220;27;20046;-58
2022/09/08 07:27:18;;;;;;;1.65;0.50;;;;;;;;;;5158045;27;20027;-58
2022/09/08 07:29:48;;;;;;;0.57;0.40;;;;;;;;;;5158542;27;20023;-58
2022/09/08 07:32:27;;;;;;;1.65;0.88;;;;;;;;;;5158288;27;20027;-58
2022/09/08 07:34:55;;;;;;;0.80;0.30;;;;;;;;;;5158292;27;20042;-58
2022/09/08 07:37:24;;;;;;;1.45;0.60;;;;;;;;;;5157908;27;20467;-58
2022/09/08 07:40:00;;;;;;;1.27;0.60;;;;;;;;;;5158355;27;20057;-58
2022/09/08 07:42:27;;;;;;;0.93;0.40;;;;;;;;;;5158040;27;20027;-58
2022/09/08 07:44:58;;;;;;;1.70;0.52;;;;;;;;;;5157413;27;20052;-58
2022/09/08 07:47:48;;;;;;;0.60;0.28;;;;;;;;;;5157864;27;20030;-58
2022/09/08 07:53:38;;;;;;;1.23;0.57;;;;;;;;;;5157782;27;20259;-58
2022/09/08 07:56:13;;;;;;;2.10;0.57;;;;;;;;;;5157411;27;20021;-58
2022/09/08 07:58:47;;;;;;;1.60;0.55;;;;;;;;;;5158233;27;20027;-58
2022/09/08 08:01:19;;;;;;;0.75;0.40;;;;;;;;;;5157561;27;20023;-58
2022/09/08 08:03:45;;;;;;;0.93;0.32;;;;;;;;;;5158023;27;20022;-58
2022/09/08 08:06:30;;;;;;;0.93;0.50;;;;;;;;;;5157642;27;20019;-58
2022/09/08 08:09:11;;;;;;;1.52;0.60;;;;;;;;;;5157450;27;20091;-58
2022/09/08 08:11:54;;;;;;;1.13;0.57;;;;;;;;;;5157386;27;20083;-58
2022/09/08 08:14:27;;;;;;;2.10;0.50;;;;;;;;;;5157319;27;20015;-58
2022/09/08 08:16:57;;;;;;;2.20;0.60;;;;;;;;;;5157259;27;20025;-58
2022/09/08 08:19:39;;;;;;;0.75;0.50;;;;;;;;;;5157315;27;20054;-58
2022/09/08 08:22:17;;;;;;;1.20;0.60;;;;;;;;;;5157970;27;20034;-58
2022/09/08 08:24:59;;;;;;;1.85;0.52;;;;;;;;;;5157440;27;20064;-58
2022/09/08 08:27:44;;;;;;;1.33;0.60;;;;;;;;;;5157527;27;20118;-58
2022/09/08 08:30:20;;;;;;;1.02;0.50;;;;;;;;;;5157749;27;20401;-58
2022/09/08 08:32:49;;;;;;;1.23;0.55;;;;;;;;;;5157394;27;20033;-58
2022/09/08 08:35:36;;;;;;;1.33;0.40;;;;;;;;;;5157754;27;20026;-58
2022/09/08 08:38:03;;;;;;;2.35;0.60;;;;;;;;;;5156795;27;20023;-58
2022/09/08 08:40:29;;;;;;;2.35;0.32;;;;;;;;;;5156684;27;20067;-58
2022/09/08 08:42:57;;;;;;;0.95;0.40;;;;;;;;;;5156794;27;20023;-58
2022/09/08 08:45:37;;;;;;;0.98;0.50;;;;;;;;;;5156703;27;20083;-58
2022/09/08 08:48:09;;;;;;;2.67;0.60;;;;;;;;;;5156716;27;20448;-58
2022/09/08 08:50:47;;;;;;;0.75;0.35;;;;;;;;;;5156510;27;20042;-58
2022/09/08 08:53:20;;;;;;;0.85;0.35;;;;;;;;;;5156611;27;20026;-58
2022/09/08 08:55:56;;;;;;;3.03;0.85;;;;;;;;;;5155706;27;20023;-58
2022/09/08 08:58:31;;;;;;;1.52;0.68;;;;;;;;;;5156800;27;20401;-58
2022/09/08 09:01:20;;;;;;;2.72;0.70;;;;;;;;;;5156719;27;20023;-58
2022/09/08 09:03:46;;;;;;;0.63;0.30;;;;;;;;;;5148237;27;20038;-58
2022/09/08 09:06:26;;;;;;;1.17;0.50;;;;;;;;;;5156204;27;20076;-58
2022/09/08 09:09:10;;;;;;;1.15;0.52;;;;;;;;;;5156872;27;20098;-58
2022/09/08 09:11:48;;;;;;;2.97;1.90;;;;;;;;;;5156173;27;20025;-58
2022/09/08 09:14:20;;;;;;;1.02;0.57;;;;;;;;;;5156720;27;20027;-58
2022/09/08 09:16:49;;;;;;;3.40;0.43;;;;;;;;;;5156092;27;20032;-58
2022/09/08 09:19:18;;;;;;;1.48;0.65;;;;;;;;;;5156099;27;20106;-58
2022/09/08 09:21:54;;;;;;;1.25;0.55;;;;;;;;;;5155901;27;20072;-58
2022/09/08 09:24:23;;;;;;;1.08;0.50;;;;;;;;;;5156795;27;20034;-58
2022/09/08 09:26:50;;;;;;;0.68;0.40;;;;;;;;;;5155859;27;20030;-58
2022/09/08 09:29:24;;;;;;;4.45;0.98;;;;;;;;;;5156492;27;20449;-58
2022/09/08 09:32:09;;;;;;;1.65;0.73;;;;;;;;;;5155817;27;20023;-58
2022/09/08 09:34:37;;;;;;;1.27;0.47;;;;;;;;;;5155743;27;20067;-58
2022/09/08 09:37:09;;;;;;;2.78;0.77;;;;;;;;;;5156039;27;20026;-58
2022/09/08 09:39:44;;;;;;;0.98;0.45;;;;;;;;;;5155734;27;20083;-58
2022/09/08 09:42:29;;;;;;;0.95;0.45;;;;;;;;;;5154420;27;20053;-58
2022/09/08 09:44:59;;;;;;;1.38;0.50;;;;;;;;;;5155599;27;20113;-58
2022/09/08 09:47:31;;;;;;;0.98;0.50;;;;;;;;;;5155499;27;20109;-58
2022/09/08 09:50:15;;;;;;;1.85;0.80;;;;;;;;;;5155772;27;20471;-58
2022/09/08 09:52:41;;;;;;;1.92;0.50;;;;;;;;;;5155559;27;20034;-58
2022/09/08 09:55:16;;;;;;;1.95;0.77;;;;;;;;;;5156101;27;20023;-58
2022/09/08 09:57:45;;;;;;;1.23;0.50;;;;;;;;;;5155749;27;20035;-58
2022/09/08 10:00:13;;;;;;;1.55;0.25;;;;;;;;;;5156043;27;20420;-58
2022/09/08 10:02:58;;;;;;;2.83;0.30;;;;;;;;;;5155279;27;20054;-59
2022/09/08 10:05:32;;;;;;;1.25;0.40;;;;;;;;;;5155817;27;20075;-58
2022/09/08 10:08:17;;;;;;;1.98;0.65;;;;;;;;;;5157241;27;20030;-58
2022/09/08 10:10:43;;;;;;;0.90;0.50;;;;;;;;;;5160512;27;20360;-58
2022/09/08 10:13:22;;;;;;;3.15;0.73;;;;;;;;;;5159826;27;20023;-58
2022/09/08 10:16:05;;;;;;;1.40;0.77;;;;;;;;;;5160071;27;20113;-58
2022/09/08 10:18:30;;;;;;;2.50;0.95;;;;;;;;;;5159571;27;20098;-58
2022/09/08 10:21:04;;;;;;;2.60;1.02;;;;;;;;;;5159138;27;20484;-58
2022/09/08 10:23:43;;;;;;;1.20;0.50;;;;;;;;;;5159770;27;20018;-59
2022/09/08 10:26:09;;;;;;;1.88;0.70;;;;;;;;;;5159694;27;20023;-58
2022/09/08 10:28:41;;;;;;;3.80;0.52;;;;;;;;;;5159630;27;20083;-59
2022/09/08 10:31:21;;;;;;;1.38;0.65;;;;;;;;;;5159359;27;20029;-59
2022/09/08 10:33:59;;;;;;;1.45;0.65;;;;;;;;;;5159904;27;20461;-59
2022/09/08 10:36:36;;;;;;;1.90;0.57;;;;;;;;;;5159137;27;20031;-58
2022/09/08 10:39:31;;;;;;;1.20;0.52;;;;;;;;;;5159420;27;20465;-58
2022/09/08 10:42:16;;;;;;;1.05;0.50;;;;;;;;;;5159062;27;20023;-58
2022/09/08 10:45:00;;;;;;;1.08;0.50;;;;;;;;;;5159025;27;20376;-58
2022/09/08 10:47:39;;;;;;;2.17;0.82;;;;;;;;;;5159027;27;20456;-58
2022/09/08 10:50:18;;;;;;;2.85;0.60;;;;;;;;;;5158899;27;20019;-58
2022/09/08 10:52:49;;;;;;;0.60;0.40;;;;;;;;;;5159646;27;20065;-59
2022/09/08 10:55:34;;;;;;;1.20;0.43;;;;;;;;;;5158839;27;20057;-58
2022/09/08 10:58:03;;;;;;;1.35;0.52;;;;;;;;;;5159359;27;20019;-58
2022/09/08 11:00:56;;;;;;;1.50;0.57;;;;;;;;;;5159054;27;20054;-58
2022/09/08 11:03:28;;;;;;;2.55;0.60;;;;;;;;;;5155987;27;20109;-58
2022/09/08 11:06:08;;;;;;;0.95;0.50;;;;;;;;;;5158991;27;20026;-59
2022/09/08 11:08:50;;;;;;;1.65;0.90;;;;;;;;;;5158483;27;20045;-59
2022/09/08 11:11:16;;;;;;;2.42;0.70;;;;;;;;;;5158894;27;20098;-59
2022/09/08 11:14:03;;;;;;;2.53;0.73;;;;;;;;;;5158523;27;20114;-59
2022/09/08 11:16:44;;;;;;;1.02;0.43;;;;;;;;;;5158265;27;20070;-58
2022/09/08 11:19:27;;;;;;;1.95;0.68;;;;;;;;;;5157172;27;20054;-58
2022/09/08 11:22:11;;;;;;;0.90;0.40;;;;;;;;;;5158388;27;20026;-59
2022/09/08 11:24:41;;;;;;;0.75;0.30;;;;;;;;;;5158634;27;20023;-59
2022/09/08 11:27:27;;;;;;;1.77;0.50;;;;;;;;;;5158023;27;20374;-59
2022/09/08 11:30:14;;;;;;;0.90;0.40;;;;;;;;;;5157718;27;20091;-59
2022/09/08 11:33:00;;;;;;;1.45;0.90;;;;;;;;;;5157895;27;20038;-59
2022/09/08 11:35:44;;;;;;;1.10;0.55;;;;;;;;;;5126309;27;20118;-59
2022/09/08 11:38:10;;;;;;;1.00;0.38;;;;;;;;;;5158595;27;20034;-59
2022/09/08 11:40:36;;;;;;;2.63;0.80;;;;;;;;;;5157704;27;20023;-59
2022/09/08 11:43:14;;;;;;;2.45;0.63;;;;;;;;;;5157947;27;20019;-59
2022/09/08 11:45:40;;;;;;;0.95;0.50;;;;;;;;;;5158523;27;20022;-58
2022/09/08 11:48:12;;;;;;;0.30;0.20;;;;;;;;;;5157632;27;20050;-58
2022/09/08 11:50:41;;;;;;;1.50;0.50;;;;;;;;;;5157500;27;20039;-58
2022/09/08 11:53:07;;;;;;;1.13;0.50;;;;;;;;;;5157644;27;20023;-59
2022/09/08 11:55:42;;;;;;;0.52;0.25;;;;;;;;;;5157549;27;20027;-59
2022/09/08 11:58:08;;;;;;;2.13;0.77;;;;;;;;;;5158055;27;20053;-58
2022/09/08 12:00:49;;;;;;;1.85;0.60;;;;;;;;;;5157854;27;20460;-59
2022/09/08 12:03:24;;;;;;;1.35;0.35;;;;;;;;;;5157556;27;20067;-58
2022/09/08 12:05:53;;;;;;;1.55;0.52;;;;;;;;;;5158196;27;20106;-59
2022/09/08 12:08:31;;;;;;;1.58;0.60;;;;;;;;;;5157409;27;20031;-59
2022/09/08 12:11:01;;;;;;;0.82;0.40;;;;;;;;;;5157838;27;20071;-59
2022/09/08 12:13:34;;;;;;;5.38;1.05;;;;;;;;;;5157672;27;20108;-58
2022/09/08 12:16:04;;;;;;;1.77;0.65;;;;;;;;;;5157719;27;20372;-59
2022/09/08 12:19:00;;;;;;;2.63;0.47;;;;;;;;;;5157103;27;20051;-59
2022/09/08 12:21:32;;;;;;;2.92;0.28;;;;;;;;;;5143672;27;20030;-59
2022/09/08 12:23:58;;;;;;;3.50;0.50;;;;;;;;;;5157660;27;20405;-59
2022/09/08 12:26:46;;;;;;;0.77;0.30;;;;;;;;;;5157054;27;20038;-59
2022/09/08 12:29:23;;;;;;;4.18;0.73;;;;;;;;;;5157618;27;20026;-59
2022/09/08 12:32:08;;;;;;;2.25;0.77;;;;;;;;;;5156756;27;20547;-59
2022/09/08 12:34:52;;;;;;;2.38;0.93;;;;;;;;;;5156969;27;20062;-59
2022/09/08 12:37:21;;;;;;;1.30;0.63;;;;;;;;;;5156810;27;20460;-59
2022/09/08 12:40:03;;;;;;;1.45;0.55;;;;;;;;;;5156797;27;20019;-59
2022/09/08 12:42:32;;;;;;;1.80;0.65;;;;;;;;;;5157019;27;20105;-59
2022/09/08 12:45:04;;;;;;;2.03;0.63;;;;;;;;;;5157196;27;20027;-59
2022/09/08 12:47:39;;;;;;;1.60;0.90;;;;;;;;;;5156685;27;20033;-59
2022/09/08 12:50:13;;;;;;;2.65;0.88;;;;;;;;;;5157150;27;20068;-59
2022/09/08 12:52:57;;;;;;;1.35;0.80;;;;;;;;;;5156944;27;20118;-59
2022/09/08 12:55:23;;;;;;;1.35;0.50;;;;;;;;;;5156814;27;20026;-59
2022/09/08 12:57:54;;;;;;;0.50;0.20;;;;;;;;;;5156419;27;20080;-59
2022/09/08 13:00:22;;;;;;;;;;;;;;;;;;5157235;27;20345;-59
2022/09/08 13:02:54;;;;;;;3.85;0.65;;;;;;;;;;5155972;27;19910;-59
2022/09/08 13:05:29;;;;;;;1.90;0.25;;;;;;;;;;5155747;27;20460;-59
2022/09/08 13:08:01;;;;;;;1.13;0.28;;;;;;;;;;5156413;27;20034;-59
2022/09/08 13:10:30;;;;;;;1.85;0.57;;;;;;;;;;5156151;27;20050;-59
2022/09/08 13:12:57;;;;;;;2.75;0.40;;;;;;;;;;5156083;27;20094;-59
2022/09/08 13:15:58;;;;;;;0.68;0.30;;;;;;;;;;5155993;27;20023;-59
2022/09/08 13:18:33;;;;;;;1.95;0.47;;;;;;;;;;5092337;28;20398;-59
2022/09/08 13:21:20;;;;;;;2.08;0.60;;;;;;;;;;5147300;27;20421;-59
2022/09/08 13:23:46;;;;;;;1.80;0.68;;;;;;;;;;5156323;27;20398;-59
2022/09/08 13:26:30;;;;;;;0.98;0.45;;;;;;;;;;5155934;27;20099;-59
2022/09/08 13:28:56;;;;;;;0.85;0.40;;;;;;;;;;5155919;27;20102;-59
2022/09/08 13:31:45;;;;;;;1.48;0.50;;;;;;;;;;5155792;27;20097;-59
2022/09/08 13:34:20;;;;;;;1.85;0.32;;;;;;;;;;5155668;27;20038;-59
2022/09/08 13:36:49;;;;;;;3.17;0.77;;;;;;;;;;5156351;27;20029;-59
2022/09/08 13:39:30;;;;;;;0.98;0.40;;;;;;;;;;5155742;27;20030;-59
2022/09/08 13:42:15;;;;;;;0.73;0.43;;;;;;;;;;5155715;27;20413;-59
2022/09/08 13:44:43;;;;;;;1.48;0.50;;;;;;;;;;5155922;27;20030;-59
2022/09/08 13:47:33;;;;;;;1.00;0.45;;;;;;;;;;5155549;27;20068;-59
2022/09/08 13:50:00;;;;;;;1.23;0.40;;;;;;;;;;5155581;27;20022;-60
2022/09/08 13:52:38;;;;;;;0.30;0.10;;;;;;;;;;5155610;27;20047;-59
2022/09/08 13:55:23;;;;;;;2.30;0.40;;;;;;;;;;5155592;27;20015;-59
2022/09/08 13:58:08;;;;;;;1.02;0.35;;;;;;;;;;5155291;27;20499;-59
2022/09/08 14:00:53;;;;;;;1.25;0.52;;;;;;;;;;5155514;27;20025;-59
2022/09/08 14:03:20;;;;;;;2.70;1.08;;;;;;;;;;5155642;27;20025;-59
2022/09/08 14:05:46;;;;;;;2.88;0.70;;;;;;;;;;5155702;27;20476;-59
2022/09/08 14:08:16;;;;;;;1.35;0.68;;;;;;;;;;5156025;27;20049;-59
2022/09/08 14:10:42;;;;;;;1.13;0.43;;;;;;;;;;5155878;27;20109;-59
2022/09/08 14:13:12;;;;;;;1.15;0.70;;;;;;;;;;5155743;27;20396;-59
2022/09/08 14:15:44;;;;;;;0.47;0.32;;;;;;;;;;5155464;27;20353;-59
2022/09/08 14:18:34;;;;;;;1.35;0.73;;;;;;;;;;5155837;27;20138;-59
2022/09/08 14:21:20;;;;;;;1.25;0.60;;;;;;;;;;5155648;27;20027;-59
2022/09/08 14:23:51;;;;;;;1.23;0.40;;;;;;;;;;5155480;27;20053;-59
2022/09/08 14:26:19;;;;;;;1.63;0.60;;;;;;;;;;5155518;27;20019;-59
2022/09/08 14:28:48;;;;;;;1.38;0.32;;;;;;;;;;5155306;27;20022;-59
2022/09/08 14:31:26;;;;;;;0.80;0.30;;;;;;;;;;5155032;27;20027;-59
2022/09/08 14:33:55;;;;;;;1.30;0.85;;;;;;;;;;5155861;27;20022;-59
2022/09/08 14:36:39;;;;;;;3.17;0.82;;;;;;;;;;5155056;27;20431;-59
2022/09/08 14:39:09;;;;;;;1.25;0.40;;;;;;;;;;5155140;27;20416;-59
2022/09/08 14:41:55;;;;;;;1.50;0.50;;;;;;;;;;5155187;27;20456;-59
2022/09/08 14:44:40;;;;;;;1.60;0.55;;;;;;;;;;5155090;27;20027;-59
2022/09/08 14:47:09;;;;;;;1.13;0.30;;;;;;;;;;5155451;27;20038;-59
2022/09/08 14:49:44;;;;;;;1.55;0.70;;;;;;;;;;5154934;27;20504;-59
2022/09/08 14:52:30;;;;;;;0.98;0.70;;;;;;;;;;5155466;27;20047;-59
2022/09/08 14:55:16;;;;;;;5.30;0.70;;;;;;;;;;5157336;27;20452;-59
2022/09/08 14:57:47;;;;;;;2.90;0.85;;;;;;;;;;5158846;27;20034;-59
2022/09/08 15:00:16;;;;;;;;;;;;;;;;;;5159202;27;20019;-59
2022/09/08 15:02:50;;;;;;;2.35;0.50;;;;;;;;;;5159566;27;20244;-59
2022/09/08 15:05:17;;;;;;;0.57;0.28;;;;;;;;;;5159072;27;20031;-59
2022/09/08 15:07:46;;;;;;;0.90;0.38;;;;;;;;;;5158539;27;20026;-59
2022/09/08 15:10:16;;;;;;;2.47;0.40;;;;;;;;;;5159268;27;20398;-59
2022/09/08 15:13:01;;;;;;;2.58;0.70;;;;;;;;;;5158459;27;20031;-59
2022/09/08 15:15:36;;;;;;;2.15;0.73;;;;;;;;;;5158459;27;20033;-59
2022/09/08 15:18:24;;;;;;;2.17;0.38;;;;;;;;;;5158362;27;20026;-59
2022/09/08 15:21:05;;;;;;;2.40;0.80;;;;;;;;;;5158645;27;20107;-59
2022/09/08 15:23:31;;;;;;;2.13;0.38;;;;;;;;;;5158413;27;20520;-59